createdAt,value
2019-02-21T00:00:52.293Z,1007.41
2019-02-21T00:02:03.468Z,1007.40
2019-02-21T00:03:14.217Z,1007.44
2019-02-21T00:04:25.704Z,1007.46
2019-02-21T00:05:36.896Z,1007.45
2019-02-21T00:06:49.071Z,1007.43
2019-02-21T00:08:00.259Z,1007.45
2019-02-21T00:09:11.446Z,1007.43
2019-02-21T00:10:22.146Z,1007.42
2019-02-21T00:11:33.314Z,1007.41
2019-02-21T00:12:44.647Z,1007.43
2019-02-21T00:13:55.824Z,1007.44
2019-02-21T00:15:07.012Z,1007.41
2019-02-21T00:16:18.194Z,1007.48
2019-02-21T00:17:28.893Z,1007.50
2019-02-21T00:18:40.075Z,1007.48
2019-02-21T00:19:50.758Z,1007.47
2019-02-21T00:21:01.934Z,1007.45
2019-02-21T00:22:13.105Z,1007.46
2019-02-21T00:23:23.792Z,1007.48
2019-02-21T00:24:34.960Z,1007.49
2019-02-21T00:25:46.128Z,1007.41
2019-02-21T00:26:57.304Z,1007.48
2019-02-21T00:28:08.632Z,1007.47
2019-02-21T00:29:19.806Z,1007.51
2019-02-21T00:30:35.297Z,1007.49
2019-02-21T00:31:42.128Z,1007.49
2019-02-21T00:32:53.301Z,1007.48
2019-02-21T00:34:04.628Z,1007.46
2019-02-21T00:35:15.811Z,1007.49
2019-02-21T00:36:26.632Z,1007.48
2019-02-21T00:37:37.796Z,1007.49
2019-02-21T00:38:48.629Z,1007.58
2019-02-21T00:39:59.315Z,1007.56
2019-02-21T00:41:10.477Z,1007.56
2019-02-21T00:42:21.637Z,1007.55
2019-02-21T00:43:32.806Z,1007.57
2019-02-21T00:44:43.488Z,1007.55
2019-02-21T00:45:54.653Z,1007.54
2019-02-21T00:47:05.823Z,1007.55
2019-02-21T00:48:16.983Z,1007.57
2019-02-21T00:49:27.664Z,1007.52
2019-02-21T00:50:38.823Z,1007.51
2019-02-21T00:51:49.982Z,1007.46
2019-02-21T00:53:01.145Z,1007.49
2019-02-21T00:54:12.300Z,1007.50
2019-02-21T00:55:23.474Z,1007.43
2019-02-21T00:56:34.139Z,1007.47
2019-02-21T00:57:44.812Z,1007.48
2019-02-21T00:58:55.970Z,1007.43
2019-02-21T01:00:07.145Z,1007.48
2019-02-21T01:01:17.806Z,1007.51
2019-02-21T01:02:28.960Z,1007.51
2019-02-21T01:03:39.634Z,1007.51
2019-02-21T01:04:50.305Z,1007.55
2019-02-21T01:06:01.468Z,1007.50
2019-02-21T01:07:12.146Z,1007.49
2019-02-21T01:08:22.811Z,1007.50
2019-02-21T01:09:33.483Z,1007.53
2019-02-21T01:10:44.689Z,1007.54
2019-02-21T01:11:55.842Z,1007.61
2019-02-21T01:13:06.502Z,1007.60
2019-02-21T01:14:17.669Z,1007.64
2019-02-21T01:15:28.836Z,1007.61
2019-02-21T01:16:39.496Z,1007.63
2019-02-21T01:17:50.701Z,1007.66
2019-02-21T01:19:01.847Z,1007.66
2019-02-21T01:20:13.022Z,1007.70
2019-02-21T01:21:24.175Z,1007.67
2019-02-21T01:22:34.840Z,1007.68
2019-02-21T01:23:45.521Z,1007.69
2019-02-21T01:24:56.691Z,1007.67
2019-02-21T01:26:07.354Z,1007.68
2019-02-21T01:27:18.023Z,1007.71
2019-02-21T01:28:28.689Z,1007.69
2019-02-21T01:29:39.853Z,1007.66
2019-02-21T01:30:56.953Z,1007.73
2019-02-21T01:32:02.185Z,1007.70
2019-02-21T01:33:12.850Z,1007.73
2019-02-21T01:34:23.520Z,1007.72
2019-02-21T01:35:34.689Z,1007.70
2019-02-21T01:36:45.844Z,1007.68
2019-02-21T01:37:57.005Z,1007.66
2019-02-21T01:39:08.174Z,1007.63
2019-02-21T01:40:19.342Z,1007.63
2019-02-21T01:41:30.630Z,1007.58
2019-02-21T01:42:41.789Z,1007.60
2019-02-21T01:43:52.629Z,1007.62
2019-02-21T01:45:03.778Z,1007.63
2019-02-21T01:46:14.940Z,1007.63
2019-02-21T01:47:26.097Z,1007.64
2019-02-21T01:48:37.249Z,1007.66
2019-02-21T01:49:48.407Z,1007.61
2019-02-21T01:50:59.571Z,1007.67
2019-02-21T01:52:10.240Z,1007.60
2019-02-21T01:53:21.389Z,1007.62
2019-02-21T01:54:32.042Z,1007.62
2019-02-21T01:55:43.205Z,1007.61
2019-02-21T01:56:53.872Z,1007.58
2019-02-21T01:58:05.032Z,1007.61
2019-02-21T01:59:16.181Z,1007.65
2019-02-21T02:00:27.331Z,1007.63
2019-02-21T02:01:38.638Z,1007.66
2019-02-21T02:02:49.791Z,1007.69
2019-02-21T02:04:00.448Z,1007.72
2019-02-21T02:05:11.593Z,1007.71
2019-02-21T02:06:22.248Z,1007.74
2019-02-21T02:07:33.911Z,1007.72
2019-02-21T02:08:45.062Z,1007.77
2019-02-21T02:09:56.217Z,1007.75
2019-02-21T02:11:07.374Z,1007.77
2019-02-21T02:12:18.533Z,1007.76
2019-02-21T02:13:29.692Z,1007.72
2019-02-21T02:14:40.841Z,1007.74
2019-02-21T02:15:51.986Z,1007.75
2019-02-21T02:17:02.649Z,1007.75
2019-02-21T02:18:13.805Z,1007.74
2019-02-21T02:19:24.950Z,1007.78
2019-02-21T02:20:35.609Z,1007.75
2019-02-21T02:21:46.750Z,1007.78
2019-02-21T02:22:57.910Z,1007.78
2019-02-21T02:24:09.063Z,1007.78
2019-02-21T02:25:20.206Z,1007.80
2019-02-21T02:26:31.853Z,1007.82
2019-02-21T02:27:42.995Z,1007.79
2019-02-21T02:28:54.145Z,1007.76
2019-02-21T02:30:04.806Z,1007.75
2019-02-21T02:31:22.643Z,1007.75
2019-02-21T02:32:28.098Z,1007.73
2019-02-21T02:33:39.241Z,1007.75
2019-02-21T02:34:49.881Z,1007.74
2019-02-21T02:36:00.537Z,1007.74
2019-02-21T02:37:11.706Z,1007.73
2019-02-21T02:38:22.367Z,1007.75
2019-02-21T02:39:33.519Z,1007.76
2019-02-21T02:40:44.667Z,1007.79
2019-02-21T02:41:55.824Z,1007.74
2019-02-21T02:43:06.979Z,1007.75
2019-02-21T02:44:18.126Z,1007.72
2019-02-21T02:45:29.272Z,1007.76
2019-02-21T02:46:39.920Z,1007.71
2019-02-21T02:47:51.072Z,1007.74
2019-02-21T02:49:02.227Z,1007.75
2019-02-21T02:50:13.369Z,1007.74
2019-02-21T02:51:24.627Z,1007.78
2019-02-21T02:52:35.771Z,1007.77
2019-02-21T02:53:46.932Z,1007.80
2019-02-21T02:54:58.070Z,1007.77
2019-02-21T02:56:09.207Z,1007.81
2019-02-21T02:57:20.354Z,1007.86
2019-02-21T02:58:31.502Z,1007.83
2019-02-21T02:59:42.659Z,1007.84
2019-02-21T03:00:53.807Z,1007.87
2019-02-21T03:02:04.958Z,1007.84
2019-02-21T03:03:16.118Z,1007.86
2019-02-21T03:04:27.344Z,1007.86
2019-02-21T03:05:37.950Z,1007.90
2019-02-21T03:06:49.094Z,1007.88
2019-02-21T03:08:00.241Z,1007.90
2019-02-21T03:09:11.411Z,1007.90
2019-02-21T03:10:22.634Z,1007.88
2019-02-21T03:11:33.765Z,1007.90
2019-02-21T03:12:44.926Z,1007.91
2019-02-21T03:13:56.062Z,1007.87
2019-02-21T03:15:06.714Z,1007.95
2019-02-21T03:16:17.854Z,1007.96
2019-02-21T03:17:29.003Z,1007.99
2019-02-21T03:18:40.155Z,1007.96
2019-02-21T03:19:51.324Z,1007.99
2019-02-21T03:21:02.626Z,1007.85
2019-02-21T03:22:13.762Z,1007.93
2019-02-21T03:23:24.897Z,1007.81
2019-02-21T03:24:36.032Z,1007.85
2019-02-21T03:25:47.189Z,1007.86
2019-02-21T03:26:58.328Z,1007.85
2019-02-21T03:28:10.616Z,1007.88
2019-02-21T03:29:21.766Z,1007.89
2019-02-21T03:30:32.909Z,1007.89
2019-02-21T03:31:54.345Z,1007.93
2019-02-21T03:32:55.192Z,1007.94
2019-02-21T03:34:06.332Z,1007.97
2019-02-21T03:35:17.518Z,1007.95
2019-02-21T03:36:28.643Z,1007.99
2019-02-21T03:37:39.299Z,1008.06
2019-02-21T03:38:51.473Z,1008.07
2019-02-21T03:40:02.616Z,1008.07
2019-02-21T03:41:13.266Z,1008.08
2019-02-21T03:42:24.412Z,1008.05
2019-02-21T03:43:35.326Z,1008.06
2019-02-21T03:44:46.423Z,1008.00
2019-02-21T03:45:57.531Z,1008.01
2019-02-21T03:47:08.675Z,1008.02
2019-02-21T03:48:19.819Z,1008.03
2019-02-21T03:49:30.955Z,1008.08
2019-02-21T03:50:43.106Z,1008.05
2019-02-21T03:51:53.747Z,1008.07
2019-02-21T03:53:04.907Z,1008.04
2019-02-21T03:54:16.042Z,1008.09
2019-02-21T03:55:27.196Z,1008.08
2019-02-21T03:56:38.343Z,1008.10
2019-02-21T03:57:49.474Z,1008.12
2019-02-21T03:59:00.116Z,1008.10
2019-02-21T04:00:10.774Z,1008.02
2019-02-21T04:01:21.928Z,1008.13
2019-02-21T04:02:32.561Z,1008.13
2019-02-21T04:03:43.709Z,1008.17
2019-02-21T04:04:54.350Z,1008.16
2019-02-21T04:06:05.490Z,1008.10
2019-02-21T04:07:16.625Z,1008.15
2019-02-21T04:08:27.778Z,1008.07
2019-02-21T04:09:38.896Z,1008.05
2019-02-21T04:10:49.551Z,1008.08
2019-02-21T04:12:00.196Z,1008.09
2019-02-21T04:13:11.338Z,1008.09
2019-02-21T04:14:22.634Z,1008.08
2019-02-21T04:15:34.767Z,1008.12
2019-02-21T04:16:45.408Z,1008.06
2019-02-21T04:17:56.634Z,1008.10
2019-02-21T04:19:07.762Z,1008.06
2019-02-21T04:20:18.394Z,1008.09
2019-02-21T04:21:29.552Z,1008.11
2019-02-21T04:22:40.689Z,1008.13
2019-02-21T04:23:51.835Z,1008.15
2019-02-21T04:25:02.626Z,1008.16
2019-02-21T04:26:13.519Z,1008.15
2019-02-21T04:27:24.173Z,1008.17
2019-02-21T04:28:34.816Z,1008.11
2019-02-21T04:29:45.453Z,1008.05
2019-02-21T04:30:56.096Z,1008.06
2019-02-21T04:32:16.591Z,1008.06
2019-02-21T04:33:18.371Z,1008.06
2019-02-21T04:34:29.530Z,1008.08
2019-02-21T04:35:40.663Z,1008.02
2019-02-21T04:36:51.808Z,1008.02
2019-02-21T04:38:02.446Z,1008.05
2019-02-21T04:39:13.099Z,1008.12
2019-02-21T04:40:24.329Z,1008.16
2019-02-21T04:41:35.364Z,1008.09
2019-02-21T04:42:46.637Z,1008.07
2019-02-21T04:43:57.277Z,1008.11
2019-02-21T04:45:07.918Z,1008.09
2019-02-21T04:46:19.053Z,1008.08
2019-02-21T04:47:29.703Z,1008.07
2019-02-21T04:48:40.837Z,1008.04
2019-02-21T04:49:51.966Z,1008.05
2019-02-21T04:51:03.105Z,1008.10
2019-02-21T04:52:13.753Z,1008.05
2019-02-21T04:53:24.400Z,1008.03
2019-02-21T04:54:35.053Z,1007.96
2019-02-21T04:55:46.174Z,1008.01
2019-02-21T04:56:57.306Z,1007.97
2019-02-21T04:58:08.147Z,1007.95
2019-02-21T04:59:19.272Z,1007.97
2019-02-21T05:00:30.411Z,1007.97
2019-02-21T05:01:41.055Z,1008.01
2019-02-21T05:02:51.694Z,1008.02
2019-02-21T05:04:04.900Z,1008.10
2019-02-21T05:05:13.769Z,1008.09
2019-02-21T05:06:24.933Z,1008.00
2019-02-21T05:07:36.054Z,1008.03
2019-02-21T05:08:47.186Z,1008.03
2019-02-21T05:09:58.678Z,1008.06
2019-02-21T05:11:09.477Z,1008.10
2019-02-21T05:12:20.201Z,1008.06
2019-02-21T05:13:30.762Z,1008.07
2019-02-21T05:14:41.404Z,1008.04
2019-02-21T05:15:52.041Z,1008.01
2019-02-21T05:17:03.178Z,1008.07
2019-02-21T05:18:14.322Z,1008.03
2019-02-21T05:19:25.454Z,1008.00
2019-02-21T05:20:36.086Z,1008.00
2019-02-21T05:21:47.213Z,1007.99
2019-02-21T05:22:58.343Z,1008.00
2019-02-21T05:24:08.987Z,1008.02
2019-02-21T05:25:20.137Z,1008.04
2019-02-21T05:26:30.752Z,1008.04
2019-02-21T05:27:41.892Z,1008.04
2019-02-21T05:28:52.546Z,1008.08
2019-02-21T05:30:03.691Z,1008.13
2019-02-21T05:31:14.816Z,1008.09
2019-02-21T05:32:25.961Z,1008.09
2019-02-21T05:33:37.127Z,1008.03
2019-02-21T05:34:48.254Z,1008.05
2019-02-21T05:35:58.894Z,1007.96
2019-02-21T05:37:10.031Z,1008.01
2019-02-21T05:38:21.242Z,1008.05
2019-02-21T05:39:32.313Z,1008.01
2019-02-21T05:40:43.450Z,1008.07
2019-02-21T05:41:54.637Z,1008.12
2019-02-21T05:43:05.763Z,1008.11
2019-02-21T05:44:16.919Z,1008.14
2019-02-21T05:45:28.046Z,1008.10
2019-02-21T05:46:39.175Z,1008.14
2019-02-21T05:47:51.316Z,1008.12
2019-02-21T05:49:02.542Z,1008.06
2019-02-21T05:50:13.678Z,1008.05
2019-02-21T05:51:24.815Z,1008.05
2019-02-21T05:52:35.950Z,1008.08
2019-02-21T05:53:47.103Z,1008.11
2019-02-21T05:54:58.248Z,1008.08
2019-02-21T05:56:09.391Z,1008.12
2019-02-21T05:57:20.614Z,1008.11
2019-02-21T05:58:31.752Z,1008.13
2019-02-21T05:59:42.900Z,1008.13
2019-02-21T06:00:54.059Z,1008.13
2019-02-21T06:02:05.192Z,1008.16
2019-02-21T06:03:17.322Z,1008.15
2019-02-21T06:04:28.452Z,1008.11
2019-02-21T06:05:39.606Z,1008.09
2019-02-21T06:06:50.739Z,1008.14
2019-02-21T06:08:01.387Z,1008.16
2019-02-21T06:09:13.521Z,1008.18
2019-02-21T06:10:24.664Z,1008.13
2019-02-21T06:11:35.794Z,1008.12
2019-02-21T06:12:46.924Z,1008.13
2019-02-21T06:13:58.065Z,1008.12
2019-02-21T06:15:09.204Z,1008.19
2019-02-21T06:16:20.348Z,1008.21
2019-02-21T06:17:34.058Z,1008.16
2019-02-21T06:18:42.771Z,1008.16
2019-02-21T06:19:53.923Z,1008.19
2019-02-21T06:21:05.073Z,1008.17
2019-02-21T06:22:16.233Z,1008.17
2019-02-21T06:23:27.362Z,1008.15
2019-02-21T06:24:38.509Z,1008.15
2019-02-21T06:25:53.180Z,1008.16
2019-02-21T06:27:01.068Z,1008.15
2019-02-21T06:28:11.930Z,1008.16
2019-02-21T06:29:23.074Z,1008.20
2019-02-21T06:30:34.284Z,1008.19
2019-02-21T06:31:45.426Z,1008.22
2019-02-21T06:33:04.440Z,1008.19
2019-02-21T06:34:07.762Z,1008.19
2019-02-21T06:35:18.908Z,1008.22
2019-02-21T06:36:30.129Z,1008.21
2019-02-21T06:37:41.195Z,1008.21
2019-02-21T06:38:52.330Z,1008.26
2019-02-21T06:40:03.476Z,1008.29
2019-02-21T06:41:14.631Z,1008.30
2019-02-21T06:42:25.783Z,1008.28
2019-02-21T06:43:36.929Z,1008.30
2019-02-21T06:44:48.066Z,1008.32
2019-02-21T06:45:59.223Z,1008.29
2019-02-21T06:47:10.373Z,1008.30
2019-02-21T06:48:21.508Z,1008.33
2019-02-21T06:49:33.159Z,1008.36
2019-02-21T06:50:43.827Z,1008.36
2019-02-21T06:51:54.969Z,1008.42
2019-02-21T06:53:07.104Z,1008.42
2019-02-21T06:54:18.250Z,1008.40
2019-02-21T06:55:29.404Z,1008.42
2019-02-21T06:56:41.542Z,1008.45
2019-02-21T06:57:52.687Z,1008.43
2019-02-21T06:59:03.386Z,1008.45
2019-02-21T07:00:14.638Z,1008.44
2019-02-21T07:01:29.427Z,1008.49
2019-02-21T07:02:36.923Z,1008.47
2019-02-21T07:03:49.084Z,1008.45
2019-02-21T07:05:00.232Z,1008.45
2019-02-21T07:06:11.365Z,1008.52
2019-02-21T07:07:22.629Z,1008.48
2019-02-21T07:08:33.837Z,1008.49
2019-02-21T07:09:44.937Z,1008.46
2019-02-21T07:11:05.849Z,1008.42
2019-02-21T07:12:07.284Z,1008.42
2019-02-21T07:13:26.014Z,1008.46
2019-02-21T07:14:29.529Z,1008.50
2019-02-21T07:15:40.679Z,1008.52
2019-02-21T07:16:52.118Z,1008.50
2019-02-21T07:18:03.272Z,1008.53
2019-02-21T07:19:14.419Z,1008.57
2019-02-21T07:20:25.578Z,1008.54
2019-02-21T07:21:37.726Z,1008.55
2019-02-21T07:22:48.883Z,1008.57
2019-02-21T07:24:00.029Z,1008.57
2019-02-21T07:25:11.181Z,1008.55
2019-02-21T07:26:22.347Z,1008.53
2019-02-21T07:27:33.009Z,1008.54
2019-02-21T07:28:44.169Z,1008.47
2019-02-21T07:29:55.330Z,1008.37
2019-02-21T07:31:06.496Z,1008.35
2019-02-21T07:32:17.661Z,1008.39
2019-02-21T07:33:29.825Z,1008.38
2019-02-21T07:34:41.000Z,1008.46
2019-02-21T07:35:52.169Z,1008.51
2019-02-21T07:37:03.332Z,1008.55
2019-02-21T07:38:17.116Z,1008.58
2019-02-21T07:39:35.592Z,1008.66
2019-02-21T07:40:36.980Z,1008.66
2019-02-21T07:41:49.996Z,1008.64
2019-02-21T07:42:59.329Z,1008.62
2019-02-21T07:44:12.445Z,1008.55
2019-02-21T07:45:21.805Z,1008.57
2019-02-21T07:46:32.989Z,1008.50
2019-02-21T07:47:44.165Z,1008.49
2019-02-21T07:48:55.354Z,1008.49
2019-02-21T07:50:07.032Z,1008.48
2019-02-21T07:51:19.203Z,1008.47
2019-02-21T07:52:30.369Z,1008.43
2019-02-21T07:53:41.544Z,1008.45
2019-02-21T07:55:01.295Z,1008.45
2019-02-21T07:56:03.901Z,1008.50
2019-02-21T07:57:15.079Z,1008.51
2019-02-21T07:58:26.422Z,1008.56
2019-02-21T07:59:37.609Z,1008.58
2019-02-21T08:00:48.789Z,1008.67
2019-02-21T08:01:59.967Z,1008.69
2019-02-21T08:03:11.159Z,1008.73
2019-02-21T08:04:22.342Z,1008.75
2019-02-21T08:05:33.517Z,1008.75
2019-02-21T08:06:44.688Z,1008.79
2019-02-21T08:07:55.859Z,1008.75
2019-02-21T08:09:07.041Z,1008.77
2019-02-21T08:10:18.229Z,1008.80
2019-02-21T08:11:29.408Z,1008.81
2019-02-21T08:12:40.737Z,1008.81
2019-02-21T08:13:51.819Z,1008.81
2019-02-21T08:15:03.012Z,1008.80
2019-02-21T08:16:14.197Z,1008.82
2019-02-21T08:17:27.859Z,1008.86
2019-02-21T08:18:36.625Z,1008.84
2019-02-21T08:19:47.816Z,1008.88
2019-02-21T08:20:59.000Z,1008.82
2019-02-21T08:22:10.177Z,1008.88
2019-02-21T08:23:21.361Z,1008.94
2019-02-21T08:24:32.633Z,1008.93
2019-02-21T08:25:43.839Z,1008.96
2019-02-21T08:26:56.014Z,1008.94
2019-02-21T08:28:07.201Z,1008.93
2019-02-21T08:29:20.623Z,1008.90
2019-02-21T08:30:29.662Z,1008.86
2019-02-21T08:31:40.772Z,1008.88
2019-02-21T08:32:51.972Z,1008.85
2019-02-21T08:34:04.339Z,1008.94
2019-02-21T08:35:15.346Z,1008.96
2019-02-21T08:36:26.632Z,1008.93
2019-02-21T08:37:37.826Z,1008.93
2019-02-21T08:38:49.021Z,1008.93
2019-02-21T08:40:00.227Z,1008.92
2019-02-21T08:41:11.413Z,1008.93
2019-02-21T08:42:22.635Z,1008.91
2019-02-21T08:43:33.831Z,1008.90
2019-02-21T08:44:45.050Z,1008.92
2019-02-21T08:45:57.544Z,1008.91
2019-02-21T08:47:08.438Z,1008.91
2019-02-21T08:48:19.636Z,1008.92
2019-02-21T08:49:30.879Z,1008.94
2019-02-21T08:50:42.084Z,1008.94
2019-02-21T08:51:55.103Z,1008.89
2019-02-21T08:53:04.628Z,1008.92
2019-02-21T08:54:15.830Z,1008.89
2019-02-21T08:55:27.034Z,1008.88
2019-02-21T08:56:37.741Z,1008.87
2019-02-21T08:57:48.946Z,1008.86
2019-02-21T08:59:00.151Z,1008.85
2019-02-21T09:00:11.371Z,1008.85
2019-02-21T09:01:22.629Z,1008.89
2019-02-21T09:02:35.885Z,1008.86
2019-02-21T09:03:45.039Z,1008.86
2019-02-21T09:04:56.243Z,1008.84
2019-02-21T09:06:07.447Z,1008.85
2019-02-21T09:07:18.658Z,1008.80
2019-02-21T09:08:33.700Z,1008.86
2019-02-21T09:09:41.053Z,1008.84
2019-02-21T09:10:52.261Z,1008.86
2019-02-21T09:12:05.571Z,1008.85
2019-02-21T09:13:14.176Z,1008.84
2019-02-21T09:14:25.388Z,1008.83
2019-02-21T09:15:36.629Z,1008.88
2019-02-21T09:16:47.839Z,1008.83
2019-02-21T09:17:59.039Z,1008.81
2019-02-21T09:19:10.252Z,1008.80
2019-02-21T09:20:21.472Z,1008.84
2019-02-21T09:21:32.704Z,1008.82
2019-02-21T09:22:43.944Z,1008.84
2019-02-21T09:23:56.747Z,1008.81
2019-02-21T09:25:06.352Z,1008.84
2019-02-21T09:26:17.592Z,1008.76
2019-02-21T09:27:28.793Z,1008.74
2019-02-21T09:28:40.015Z,1008.73
2019-02-21T09:29:51.231Z,1008.74
2019-02-21T09:31:02.631Z,1008.72
2019-02-21T09:32:13.849Z,1008.70
2019-02-21T09:33:25.090Z,1008.70
2019-02-21T09:34:36.306Z,1008.66
2019-02-21T09:35:47.538Z,1008.67
2019-02-21T09:36:58.766Z,1008.69
2019-02-21T09:38:09.994Z,1008.66
2019-02-21T09:39:21.225Z,1008.64
2019-02-21T09:40:32.445Z,1008.62
2019-02-21T09:41:43.671Z,1008.58
2019-02-21T09:42:54.892Z,1008.53
2019-02-21T09:44:06.124Z,1008.52
2019-02-21T09:45:17.362Z,1008.48
2019-02-21T09:46:28.621Z,1008.45
2019-02-21T09:47:39.853Z,1008.45
2019-02-21T09:48:51.088Z,1008.42
2019-02-21T09:50:02.333Z,1008.49
2019-02-21T09:51:13.581Z,1008.49
2019-02-21T09:52:24.825Z,1008.47
2019-02-21T09:53:36.063Z,1008.50
2019-02-21T09:54:47.639Z,1008.45
2019-02-21T09:55:58.638Z,1008.43
2019-02-21T09:57:13.261Z,1008.40
2019-02-21T09:58:21.129Z,1008.42
2019-02-21T09:59:32.369Z,1008.36
2019-02-21T10:00:43.614Z,1008.35
2019-02-21T10:01:57.444Z,1008.38
2019-02-21T10:03:06.094Z,1008.40
2019-02-21T10:04:17.329Z,1008.43
2019-02-21T10:05:28.628Z,1008.43
2019-02-21T10:06:39.872Z,1008.47
2019-02-21T10:07:51.120Z,1008.51
2019-02-21T10:09:02.365Z,1008.57
2019-02-21T10:10:13.616Z,1008.55
2019-02-21T10:11:24.868Z,1008.60
2019-02-21T10:12:36.112Z,1008.61
2019-02-21T10:13:47.375Z,1008.55
2019-02-21T10:14:58.644Z,1008.49
2019-02-21T10:16:09.909Z,1008.42
2019-02-21T10:17:21.181Z,1008.37
2019-02-21T10:18:32.439Z,1008.28
2019-02-21T10:19:43.684Z,1008.22
2019-02-21T10:20:54.941Z,1008.17
2019-02-21T10:22:06.194Z,1008.14
2019-02-21T10:23:17.451Z,1008.08
2019-02-21T10:24:28.216Z,1008.11
2019-02-21T10:25:39.479Z,1008.09
2019-02-21T10:26:50.822Z,1008.08
2019-02-21T10:28:02.010Z,1008.10
2019-02-21T10:29:13.280Z,1008.11
2019-02-21T10:30:24.653Z,1008.11
2019-02-21T10:31:35.928Z,1008.03
2019-02-21T10:32:47.199Z,1008.03
2019-02-21T10:33:58.635Z,1007.94
2019-02-21T10:35:09.897Z,1007.90
2019-02-21T10:36:21.171Z,1007.91
2019-02-21T10:37:32.450Z,1007.87
2019-02-21T10:38:43.728Z,1007.85
2019-02-21T10:39:54.999Z,1007.76
2019-02-21T10:41:08.783Z,1007.70
2019-02-21T10:42:17.557Z,1007.59
2019-02-21T10:43:28.842Z,1007.54
2019-02-21T10:44:40.132Z,1007.55
2019-02-21T10:45:51.413Z,1007.58
2019-02-21T10:47:02.691Z,1007.64
2019-02-21T10:48:13.972Z,1007.67
2019-02-21T10:49:25.250Z,1007.69
2019-02-21T10:50:36.544Z,1007.75
2019-02-21T10:51:47.841Z,1007.75
2019-02-21T10:52:59.135Z,1007.75
2019-02-21T10:54:10.428Z,1007.61
2019-02-21T10:55:21.719Z,1007.49
2019-02-21T10:56:33.028Z,1007.42
2019-02-21T10:57:45.499Z,1007.37
2019-02-21T10:58:55.603Z,1007.42
2019-02-21T11:00:06.913Z,1007.50
2019-02-21T11:01:18.196Z,1007.58
2019-02-21T11:02:29.494Z,1007.54
2019-02-21T11:03:40.806Z,1007.53
2019-02-21T11:04:55.077Z,1007.57
2019-02-21T11:06:04.417Z,1007.55
2019-02-21T11:07:15.724Z,1007.49
2019-02-21T11:08:27.030Z,1007.33
2019-02-21T11:09:38.344Z,1007.14
2019-02-21T11:10:49.649Z,1006.97
2019-02-21T11:12:00.959Z,1006.78
2019-02-21T11:13:12.282Z,1006.70
2019-02-21T11:14:23.614Z,1006.68
2019-02-21T11:15:34.940Z,1006.68
2019-02-21T11:16:46.259Z,1006.66
2019-02-21T11:17:57.582Z,1006.55
2019-02-21T11:19:08.904Z,1006.53
2019-02-21T11:20:20.232Z,1006.44
2019-02-21T11:21:31.571Z,1006.39
2019-02-21T11:22:42.907Z,1006.44
2019-02-21T11:23:54.239Z,1006.52
2019-02-21T11:25:05.568Z,1006.66
2019-02-21T11:26:16.906Z,1006.68
2019-02-21T11:27:28.243Z,1006.72
2019-02-21T11:28:39.572Z,1006.71
2019-02-21T11:29:50.921Z,1006.64
2019-02-21T11:31:02.275Z,1006.48
2019-02-21T11:32:13.623Z,1006.38
2019-02-21T11:33:25.000Z,1006.32
2019-02-21T11:34:38.083Z,1006.32
2019-02-21T11:35:47.680Z,1006.41
2019-02-21T11:36:59.025Z,1006.57
2019-02-21T11:38:10.363Z,1006.75
2019-02-21T11:39:21.705Z,1006.63
2019-02-21T11:40:33.059Z,1006.34
2019-02-21T11:41:44.413Z,1006.26
2019-02-21T11:42:55.772Z,1006.12
2019-02-21T11:44:07.121Z,1005.79
2019-02-21T11:45:18.637Z,1005.66
2019-02-21T11:46:30.003Z,1005.54
2019-02-21T11:47:41.376Z,1005.45
2019-02-21T11:48:52.749Z,1005.37
2019-02-21T11:50:04.101Z,1005.31
2019-02-21T11:51:15.462Z,1005.30
2019-02-21T11:52:26.819Z,1005.48
2019-02-21T11:53:38.310Z,1005.62
2019-02-21T11:54:49.544Z,1005.78
2019-02-21T11:56:01.373Z,1005.94
2019-02-21T11:57:12.218Z,1006.03
2019-02-21T11:58:23.581Z,1006.16
2019-02-21T11:59:34.924Z,1006.26
2019-02-21T12:00:46.293Z,1006.34
2019-02-21T12:01:57.638Z,1006.42
2019-02-21T12:03:08.978Z,1006.47
2019-02-21T12:04:20.308Z,1006.57
2019-02-21T12:05:32.178Z,1006.66
2019-02-21T12:06:42.979Z,1006.82
2019-02-21T12:07:53.832Z,1006.82
2019-02-21T12:09:05.184Z,1006.81
2019-02-21T12:10:16.628Z,1006.68
2019-02-21T12:11:27.979Z,1006.60
2019-02-21T12:12:39.313Z,1006.57
2019-02-21T12:13:50.650Z,1006.68
2019-02-21T12:15:02.003Z,1006.89
2019-02-21T12:16:13.370Z,1006.57
2019-02-21T12:17:24.765Z,1005.69
2019-02-21T12:18:36.179Z,1004.77
2019-02-21T12:19:47.595Z,1003.99
2019-02-21T12:20:59.023Z,1003.46
2019-02-21T12:22:10.448Z,1003.41
2019-02-21T12:23:22.882Z,1003.41
2019-02-21T12:24:34.305Z,1003.56
2019-02-21T12:25:45.727Z,1003.88
2019-02-21T12:26:57.200Z,1004.27
2019-02-21T12:28:08.625Z,1004.61
2019-02-21T12:29:20.046Z,1004.99
2019-02-21T12:30:33.251Z,1005.33
2019-02-21T12:31:42.854Z,1005.57
2019-02-21T12:32:54.261Z,1005.76
2019-02-21T12:34:05.678Z,1006.02
2019-02-21T12:35:28.749Z,1006.09
2019-02-21T12:36:28.626Z,1006.11
2019-02-21T12:37:40.039Z,1006.23
2019-02-21T12:38:51.442Z,1006.33
2019-02-21T12:40:02.851Z,1006.45
2019-02-21T12:41:14.244Z,1006.58
2019-02-21T12:42:25.639Z,1006.48
2019-02-21T12:43:37.016Z,1006.42
2019-02-21T12:44:48.394Z,1006.46
2019-02-21T12:45:59.769Z,1006.43
2019-02-21T12:47:11.147Z,1006.48
2019-02-21T12:48:22.637Z,1006.60
2019-02-21T12:49:34.008Z,1006.67
2019-02-21T12:50:45.368Z,1006.80
2019-02-21T12:51:57.584Z,1006.86
2019-02-21T12:53:08.111Z,1006.93
2019-02-21T12:54:19.463Z,1006.98
2019-02-21T12:55:31.768Z,1006.97
2019-02-21T12:56:42.176Z,1007.00
2019-02-21T12:57:53.045Z,1007.04
2019-02-21T12:59:04.385Z,1007.14
2019-02-21T13:00:15.733Z,1007.25
2019-02-21T13:01:27.105Z,1007.37
2019-02-21T13:02:38.478Z,1007.61
2019-02-21T13:03:49.346Z,1007.28
2019-02-21T13:05:00.696Z,1007.03
2019-02-21T13:06:11.577Z,1006.83
2019-02-21T13:07:22.946Z,1006.69
2019-02-21T13:08:34.343Z,1006.55
2019-02-21T13:09:45.708Z,1006.87
2019-02-21T13:10:57.093Z,1006.70
2019-02-21T13:12:08.619Z,1006.19
2019-02-21T13:13:20.026Z,1005.36
2019-02-21T13:14:31.452Z,1005.00
2019-02-21T13:15:42.881Z,1004.59
2019-02-21T13:16:54.274Z,1004.42
2019-02-21T13:18:15.491Z,1004.39
2019-02-21T13:19:17.112Z,1004.55
2019-02-21T13:20:28.638Z,1004.79
2019-02-21T13:21:40.049Z,1005.02
2019-02-21T13:22:51.439Z,1005.20
2019-02-21T13:24:02.859Z,1005.44
2019-02-21T13:25:14.262Z,1005.62
2019-02-21T13:26:25.654Z,1005.91
2019-02-21T13:27:37.037Z,1006.09
2019-02-21T13:28:48.419Z,1006.19
2019-02-21T13:29:59.794Z,1006.36
2019-02-21T13:31:11.165Z,1006.53
2019-02-21T13:32:22.623Z,1006.74
2019-02-21T13:33:33.992Z,1006.91
2019-02-21T13:34:44.893Z,1006.90
2019-02-21T13:35:56.306Z,1006.81
2019-02-21T13:37:07.656Z,1006.69
2019-02-21T13:38:19.039Z,1006.65
2019-02-21T13:39:30.416Z,1006.65
2019-02-21T13:40:41.791Z,1006.71
2019-02-21T13:41:53.156Z,1006.97
2019-02-21T13:43:04.628Z,1007.03
2019-02-21T13:44:16.092Z,1006.70
2019-02-21T13:45:27.401Z,1006.27
2019-02-21T13:46:41.066Z,1006.04
2019-02-21T13:47:50.165Z,1005.95
2019-02-21T13:49:01.548Z,1006.10
2019-02-21T13:50:12.927Z,1005.80
2019-02-21T13:51:24.301Z,1005.84
2019-02-21T13:52:35.677Z,1005.95
2019-02-21T13:53:47.060Z,1005.75
2019-02-21T13:54:58.630Z,1005.02
2019-02-21T13:56:10.038Z,1004.62
2019-02-21T13:57:21.463Z,1004.39
2019-02-21T13:58:32.864Z,1003.68
2019-02-21T13:59:44.294Z,1003.52
2019-02-21T14:00:55.699Z,1003.48
2019-02-21T14:02:07.121Z,1003.75
2019-02-21T14:03:18.625Z,1004.22
2019-02-21T14:04:30.047Z,1004.34
2019-02-21T14:05:41.486Z,1004.18
2019-02-21T14:06:52.926Z,1004.08
2019-02-21T14:08:04.394Z,1003.91
2019-02-21T14:09:15.841Z,1003.67
2019-02-21T14:10:27.326Z,1003.55
2019-02-21T14:11:38.797Z,1003.43
2019-02-21T14:12:50.306Z,1003.14
2019-02-21T14:14:01.801Z,1002.82
2019-02-21T14:15:14.629Z,1002.68
2019-02-21T14:16:26.159Z,1002.40
2019-02-21T14:17:37.689Z,1002.41
2019-02-21T14:18:49.221Z,1002.45
2019-02-21T14:20:00.759Z,1002.30
2019-02-21T14:21:12.317Z,1002.16